Wingate, Indiana
Current Conditions -  °F | °C
As of 2:54 PM on Monday 24 Nov 2014 (Local Time) from KLAF Reporting Station
Overcast Overcast  
Wind Chill: 22°   Ceiling: 1700
Heat Index: 34°   Visibility: 10mi
Dew Point: 29°   Wind: 21mph
Humidity: 82%   Direction: 250°WSW
Pressure: 29.6"   Gusts: 31mph
Location:  40.17°N, 87.07°W
Report Text: KLAF 241954Z 25018G27KT 10SM OVC017 01/M02 A2960 RMK AO2 PK WND 23038/1903 SLP024 T00111017
Loading
Personal Weather Stations






























Interactive Weather Map New forecast layout! Learn more

10-Day Weather Forecast

Advertisements
Track Severe Weather on mobile